Latest Weather Observations for Hay Airport

IDN60801

Issued at 7:23 am EDT Thursday 8 December 2022 (issued every 10 minutes, with the page automatically refreshed every 10 minutes)

About weather observations | Map of weather stations | Latest weather observations for NSW | Other Formats
Station Details ID: 075019 Name: HAY AIRPORT AWS Lat: -34.54 Lon: 144.83 Height: 92.0 m
Data from the previous 72 hours. | See also: Recent months at Hay Airport
Date/Time
EDT
Temp
°C
App
Temp
°C
Dew
Point
°C
Rel
Hum
%
Delta-T
°C
Wind Press
QNH
hPa
Press
MSL
hPa
Rain since
9am
mm
Dir  Spd
km/h
Gust
km/h
Spd
kts
Gust
kts
08/07:00am 9.9 6.4 5.3 73 2.1 SW 13 17 7 9 1013.7 1013.3 0.0
08/06:30am 7.7 4.4 4.8 82 1.3 SW 11 13 6 7 1013.4 1013.0 0.0
08/06:00am 6.9 3.2 4.2 83 1.2 SW 13 17 7 9 1013.1 1012.7 0.0
08/05:30am 7.0 3.2 3.8 80 1.4 SW 13 15 7 8 1012.8 1012.4 0.0
08/05:00am 7.8 4.3 3.3 73 1.9 SW 11 13 6 7 1012.4 1012.0 0.0
08/04:30am 9.5 4.8 3.0 64 2.8 SSW 17 24 9 13 1012.3 1011.9 0.0
08/04:00am 10.0 4.8 3.3 63 2.9 SSW 20 24 11 13 1012.1 1011.7 0.0
08/03:30am 9.6 6.0 4.8 72 2.2 SSW 13 17 7 9 1011.8 1011.4 0.0
08/03:00am 11.2 6.1 4.2 62 3.2 SSW 20 28 11 15 1011.6 1011.2 0.0
08/02:30am 12.1 6.0 4.6 60 3.4 SW 26 33 14 18 1011.3 1010.9 0.0
08/02:00am 13.0 5.6 5.2 59 3.6 SSW 33 46 18 25 1011.4 1011.0 0.0
08/01:30am 13.5 6.0 6.1 61 3.5 SSW 35 48 19 26 1011.1 1010.8 0.0
08/01:00am 14.3 6.9 6.9 61 3.6 SSW 35 50 19 27 1010.9 1010.6 0.0
08/12:35am 15.1 8.3 7.9 62 3.6 SW 33 52 18 28 1010.6 1010.3 0.0
08/12:30am 15.1 8.5 7.6 61 3.7 SW 32 44 17 24 1010.4 1010.1 0.0
08/12:00am 15.9 9.0 7.1 56 4.4 SW 33 44 18 24 1010.1 1009.7 0.0
 
Date/Time
EDT
Temp
°C
App
Temp
°C
Dew
Point
°C
Rel
Hum
%
Delta-T
°C
Wind Press
QNH
hPa
Press
MSL
hPa
Rain since
9am
mm
Dir  Spd
km/h
Gust
km/h
Spd
kts
Gust
kts
07/11:30pm 17.2 9.0 6.7 50 5.2 SW 39 56 21 30 1009.6 1009.2 0.0
07/11:13pm 17.8 10.9 4.4 41 6.4 SW 30 48 16 26 1009.1 1008.7 0.0
07/11:00pm 17.5 11.5 3.4 39 6.6 SW 24 37 13 20 1008.7 1008.3 0.0
07/10:30pm 18.3 11.6 3.4 37 7.0 SW 28 37 15 20 1008.2 1007.8 0.0
07/10:00pm 18.6 12.6 3.6 37 7.1 WSW 24 32 13 17 1007.5 1007.1 0.0
07/09:30pm 19.3 12.6 3.9 36 7.3 WSW 28 37 15 20 1007.0 1006.6 0.0
07/09:00pm 20.2 13.6 4.3 35 7.7 WSW 28 41 15 22 1006.4 1006.0 0.0
07/08:30pm 21.3 13.8 4.4 33 8.3 WSW 33 46 18 25 1005.8 1005.4 0.0
07/08:06pm 22.3 14.8 4.4 31 8.8 WSW 33 54 18 29 1005.3 1004.9 0.0
07/08:00pm 22.6 15.1 4.6 31 8.9 WSW 33 44 18 24 1005.1 1004.7 0.0
07/07:30pm 23.9 14.9 4.3 28 9.7 WSW 41 50 22 27 1004.4 1004.0 0.0
07/07:00pm 25.1 17.3 6.8 31 9.6 WSW 37 48 20 26 1003.7 1003.3 0.0
07/06:30pm 26.1 18.5 7.7 31 9.8 WSW 37 52 20 28 1003.1 1002.7 0.0
07/06:01pm 27.2 20.4 7.6 29 10.5 WSW 33 52 18 28 1002.6 1002.2 0.0
07/06:00pm 27.0 19.8 7.5 29 10.5 W 35 52 19 28 1002.6 1002.2 0.0
07/05:30pm 27.4 20.0 6.8 27 10.9 W 35 57 19 31 1002.4 1002.0 0.0
07/05:08pm 28.8 21.5 7.4 26 11.6 W 35 54 19 29 1002.1 1001.7 0.0
07/05:00pm 29.5 22.4 8.0 26 11.8 WSW 35 46 19 25 1002.1 1001.7 0.0
07/04:30pm 27.8 21.7 8.1 29 10.7 WNW 30 44 16 24 1002.1 1001.7 0.0
07/04:00pm 28.8 22.7 10.5 32 10.5 WNW 33 48 18 26 1002.2 1001.8 0.0
07/03:30pm 28.2 22.3 10.4 33 10.1 WNW 32 41 17 22 1002.8 1002.4 0.0
07/03:00pm 29.4 24.7 10.5 31 10.8 WNW 26 35 14 19 1002.7 1002.3 0.0
07/02:30pm 27.9 24.2 10.1 33 10.0 W 20 30 11 16 1003.1 1002.7 0.0
07/02:00pm 27.6 23.5 8.5 30 10.5 W 20 30 11 16 1003.6 1003.2 0.0
07/01:30pm 27.5 22.5 7.9 29 10.6 WNW 24 33 13 18 1003.7 1003.3 0.0
07/01:00pm 28.5 24.5 8.2 28 11.1 NW 19 28 10 15 1004.0 1003.6 0.0
07/12:30pm 26.7 22.1 5.6 26 10.9 NW 19 24 10 13 1004.3 1003.9 0.0
07/12:00pm 27.1 22.7 6.5 27 10.9 NNW 19 24 10 13 1004.4 1004.0 0.0
07/11:30am 26.5 22.7 7.5 30 10.2 N 17 22 9 12 1004.4 1004.0 0.0
07/11:00am 25.9 22.6 8.0 32 9.6 NNW 15 20 8 11 1004.7 1004.3 0.0
07/10:30am 24.4 20.5 7.1 33 9.1 N 17 20 9 11 1004.8 1004.4 0.0
07/10:00am 24.1 20.6 7.3 34 8.9 N 15 17 8 9 1004.8 1004.4 0.0
07/09:30am 23.5 20.9 9.5 41 7.6 N 13 17 7 9 1005.1 1004.7 0.0
07/09:00am 21.1 19.0 11.2 53 5.5 N 13 17 7 9 1005.3 1004.9 0.0
07/08:30am 20.0 18.5 11.8 59 4.6 N 11 15 6 8 1005.3 1004.9 0.0
07/08:00am 20.2 18.3 11.9 59 4.7 N 13 17 7 9 1005.2 1004.8 0.0
07/07:30am 18.1 17.6 12.5 70 3.1 N 7 11 4 6 1005.0 1004.6 0.0
07/07:00am 17.3 15.3 11.6 69 3.1 N 13 17 7 9 1005.0 1004.6 0.0
07/06:30am 15.6 12.9 8.8 64 3.5 NNE 13 15 7 8 1004.3 1003.9 0.0
07/06:00am 14.2 12.4 9.6 74 2.4 NE 9 11 5 6 1004.0 1003.6 0.0
07/05:30am 14.1 11.9 9.5 74 2.4 NE 11 15 6 8 1003.9 1003.5 0.0
07/05:00am 14.8 13.0 9.6 71 2.7 NNE 9 13 5 7 1003.9 1003.5 0.0
07/04:30am 14.4 12.8 10.2 76 2.2 N 9 11 5 6 1004.2 1003.8 0.0
07/04:00am 14.4 12.6 9.6 73 2.5 N 9 11 5 6 1004.3 1003.9 0.0
07/03:30am 14.5 13.2 9.9 74 2.4 N 7 11 4 6 1004.4 1004.0 0.0
07/03:00am 13.7 11.6 9.7 77 2.1 N 11 13 6 7 1005.1 1004.7 0.0
07/02:30am 12.8 10.9 8.9 77 2.0 N 9 11 5 6 1005.0 1004.6 0.0
07/02:00am 14.3 12.0 9.1 71 2.7 N 11 13 6 7 1005.7 1005.3 0.0
07/01:30am 14.5 12.6 9.1 70 2.8 N 9 11 5 6 1006.0 1005.6 0.0
07/01:00am 14.6 12.5 9.6 72 2.6 N 11 13 6 7 1006.0 1005.6 0.0
07/12:30am 14.7 12.7 10.1 74 2.4 N 11 11 6 6 1006.3 1005.9 0.0
07/12:00am 15.2 13.5 9.8 70 2.8 N 9 9 5 5 1006.6 1006.2 0.0
 
Date/Time
EDT
Temp
°C
App
Temp
°C
Dew
Point
°C
Rel
Hum
%
Delta-T
°C
Wind Press
QNH
hPa
Press
MSL
hPa
Rain since
9am
mm
Dir  Spd
km/h
Gust
km/h
Spd
kts
Gust
kts
06/11:30pm 15.6 13.7 10.6 72 2.7 N 11 13 6 7 1006.9 1006.5 0.0
06/11:00pm 15.0 13.7 11.2 78 2.0 N 9 9 5 5 1007.2 1006.8 0.0
06/10:30pm 15.5 14.5 9.0 65 3.3 N 4 7 2 4 1007.1 1006.7 0.0
06/10:00pm 16.2 14.4 9.4 64 3.6 NW 9 13 5 7 1007.2 1006.8 0.0
06/09:30pm 16.2 14.3 9.2 63 3.6 NW 9 13 5 7 1007.2 1006.8 0.0
06/09:00pm 16.7 14.5 9.4 62 3.8 WNW 11 13 6 7 1007.2 1006.8 0.0
06/08:30pm 17.3 14.2 9.0 58 4.3 NW 15 17 8 9 1007.3 1006.9 0.0
06/08:00pm 20.7 17.6 7.3 42 6.9 WNW 13 15 7 8 1007.2 1006.8 0.0
06/07:30pm 23.1 19.9 6.8 35 8.4 WNW 13 19 7 10 1006.9 1006.5 0.0
06/07:00pm 24.1 19.3 4.5 28 9.8 WNW 19 24 10 13 1006.9 1006.5 0.0
06/06:30pm 24.7 20.2 6.0 30 9.6 WNW 19 26 10 14 1006.7 1006.3 0.0
06/06:00pm 24.9 20.5 7.5 33 9.2 W 20 28 11 15 1006.7 1006.3 0.0
06/05:30pm 24.1 20.3 8.9 38 8.2 WNW 19 28 10 15 1006.8 1006.4 0.0
06/05:00pm 24.8 21.4 10.7 41 7.9 W 19 30 10 16 1007.4 1007.0 0.0
06/04:30pm 25.0 21.7 10.8 41 8.0 W 19 28 10 15 1007.5 1007.1 0.0
06/04:00pm 25.2 22.2 10.6 39 8.2 WNW 17 26 9 14 1007.8 1007.4 0.0
06/03:30pm 25.2 21.5 10.3 39 8.3 WNW 20 33 11 18 1008.2 1007.8 0.0
06/03:00pm 25.6 22.0 10.6 39 8.4 WNW 20 30 11 16 1008.2 1007.8 0.0
06/02:30pm 24.9 21.3 8.4 35 8.9 SW 17 28 9 15 1008.4 1008.0 0.0
06/02:00pm 24.8 21.8 9.1 37 8.6 WSW 15 28 8 15 1008.7 1008.3 0.0
06/01:30pm 24.1 21.5 9.3 39 8.1 W 13 24 7 13 1009.1 1008.7 0.0
06/01:00pm 23.6 20.6 9.2 40 7.8 SW 15 26 8 14 1009.2 1008.8 0.0
06/12:30pm 23.4 20.2 10.1 43 7.3 W 17 24 9 13 1009.5 1009.1 0.0
06/12:00pm 22.6 20.1 11.0 48 6.5 WSW 15 24 8 13 1009.8 1009.4 0.0
06/11:30am 21.2 18.3 9.8 48 6.2 WSW 15 20 8 11 1009.8 1009.4 0.0
06/11:00am 20.7 18.8 10.5 52 5.6 SSW 11 20 6 11 1010.1 1009.7 0.0
06/10:30am 19.4 17.0 9.9 54 5.1 SSW 13 20 7 11 1010.3 1010.0 0.0
06/10:00am 18.9 15.8 10.2 57 4.7 S 17 24 9 13 1010.4 1010.1 0.0
06/09:30am 17.6 14.0 10.0 61 4.0 SSW 19 28 10 15 1010.6 1010.3 0.0
06/09:00am 16.7 12.5 9.9 64 3.6 SSW 22 28 12 15 1010.7 1010.4 0.0
06/08:30am 15.7 11.5 9.8 68 3.1 SSW 22 30 12 16 1010.7 1010.4 0.0
06/08:00am 14.2 9.8 9.0 71 2.7 SSW 22 30 12 16 1010.4 1010.1 0.0
06/07:30am 13.3 9.5 9.7 79 1.9 SW 20 28 11 15 1010.6 1010.3 0.0
06/07:00am 11.3 8.0 9.6 89 0.9 SW 17 20 9 11 1010.5 1010.2 0.0
06/06:30am 9.2 6.5 8.9 98 0.1 SW 13 15 7 8 1010.2 1009.9 0.0
06/06:00am 7.9 5.6 7.5 97 0.2 SW 9 11 5 6 1010.1 1009.7 0.0
06/05:30am 8.5 5.9 7.9 96 0.3 WSW 11 13 6 7 1010.0 1009.6 0.0
06/05:00am 8.9 6.4 8.0 94 0.4 WSW 11 13 6 7 1009.9 1009.5 0.0
06/04:30am 9.1 6.2 8.3 95 0.4 WSW 13 15 7 8 1010.0 1009.6 0.0
06/04:00am 8.9 6.3 7.8 93 0.5 WSW 11 13 6 7 1009.9 1009.5 0.0
06/03:30am 9.2 6.7 8.0 92 0.6 WSW 11 13 6 7 1009.8 1009.4 0.0
06/03:00am 9.2 6.6 7.6 90 0.8 SW 11 13 6 7 1010.0 1009.6 0.0
06/02:30am 10.2 7.9 7.6 84 1.3 WSW 9 11 5 6 1010.4 1010.1 0.0
06/02:00am 11.4 8.4 7.7 78 1.8 SW 13 15 7 8 1010.5 1010.2 0.0
06/01:30am 12.6 9.2 7.7 72 2.4 SSW 15 20 8 11 1010.5 1010.2 0.0
06/01:00am 13.2 9.0 7.6 69 2.8 SSW 19 22 10 12 1010.5 1010.2 0.0
06/12:30am 14.2 10.4 7.5 64 3.3 SSW 17 26 9 14 1011.3 1010.9 0.0
06/12:00am 14.6 10.3 7.2 61 3.7 SSW 19 24 10 13 1011.1 1010.8 0.0
 
Date/Time
EDT
Temp
°C
App
Temp
°C
Dew
Point
°C
Rel
Hum
%
Delta-T
°C
Wind Press
QNH
hPa
Press
MSL
hPa
Rain since
9am
mm
Dir  Spd
km/h
Gust
km/h
Spd
kts
Gust
kts
05/11:30pm 15.6 10.7 7.1 57 4.2 SSW 22 30 12 16 1011.1 1010.8 0.0
05/11:00pm 15.9 11.5 7.4 57 4.2 SSW 20 26 11 14 1011.5 1011.1 0.0
05/10:30pm 16.2 12.0 7.4 56 4.4 SSW 19 24 10 13 1011.3 1010.9 0.0
05/10:00pm 16.3 12.4 7.3 55 4.5 SSW 17 22 9 12 1011.1 1010.8 0.0
05/09:30pm 16.7 12.9 7.6 55 4.6 SSW 17 20 9 11 1010.7 1010.4 0.0
05/09:00pm 17.5 14.1 7.5 52 5.1 SSW 15 20 8 11 1010.5 1010.2 0.0
05/08:30pm 18.9 14.8 7.7 48 5.7 SSW 19 26 10 14 1010.2 1009.9 0.0
05/08:00pm 20.4 15.4 8.1 45 6.4 SSW 24 39 13 21 1009.9 1009.5 0.0
05/07:30pm 21.8 15.6 8.0 41 7.2 SSW 30 41 16 22 1009.5 1009.1 0.0
05/07:00pm 23.1 17.1 8.8 40 7.7 SSW 30 41 16 22 1009.1 1008.7 0.0
05/06:30pm 23.9 18.2 8.3 37 8.3 SW 28 41 15 22 1008.9 1008.5 0.0
05/06:15pm 23.9 17.7 7.9 36 8.5 SW 30 48 16 26 1008.7 1008.3 0.0
05/06:00pm 24.2 17.8 8.6 37 8.4 SW 32 44 17 24 1008.6 1008.2 0.0
05/05:30pm 24.8 18.7 8.3 35 8.9 SW 30 43 16 23 1008.3 1007.9 0.0
05/05:00pm 24.3 18.5 7.9 35 8.7 SW 28 37 15 20 1008.4 1008.0 0.0
05/04:30pm 24.5 17.8 7.2 33 9.1 SW 32 39 17 21 1008.3 1007.9 0.0
05/04:10pm 25.9 20.7 10.1 37 8.8 SW 28 48 15 26 1008.2 1007.8 0.0
05/04:00pm 25.3 19.9 9.6 37 8.7 SW 28 43 15 23 1008.3 1007.9 0.0
05/03:30pm 24.9 19.5 10.8 41 7.9 SW 30 39 16 21 1008.1 1007.7 0.0
05/03:00pm 25.0 20.1 11.2 42 7.8 WSW 28 39 15 21 1008.6 1008.2 0.0
05/02:30pm 23.0 20.0 12.6 52 6.0 WSW 20 28 11 15 1008.9 1008.5 0.0
05/02:00pm 21.5 18.1 12.6 57 5.1 SW 22 32 12 17 1009.6 1009.2 0.0
05/01:30pm 20.9 17.2 12.8 60 4.6 SW 24 32 13 17 1009.8 1009.4 0.0
05/01:00pm 20.9 17.0 13.4 62 4.3 WSW 26 33 14 18 1010.0 1009.6 0.0
05/12:30pm 19.7 16.8 14.1 70 3.2 SW 22 30 12 16 1009.5 1009.1 0.0
05/12:00pm 21.0 17.6 13.7 63 4.2 SW 24 32 13 17 1009.3 1008.9 0.0
05/11:30am 20.2 16.4 13.6 66 3.8 SW 26 37 14 20 1009.6 1009.2 0.0
05/11:00am 20.4 16.2 13.6 65 3.9 SW 28 35 15 19 1009.6 1009.2 0.0
05/10:30am 21.0 17.4 14.2 65 4.0 SW 26 35 14 19 1009.5 1009.1 0.0
05/10:00am 19.5 16.2 13.9 70 3.2 WSW 24 32 13 17 1009.3 1008.9 0.0
05/09:30am 18.8 15.5 13.9 73 2.8 WSW 24 33 13 18 1009.5 1009.1 0.0
05/09:00am 18.8 15.0 13.6 72 3.0 WSW 26 39 14 21 1009.4 1009.0 0.0
05/08:30am 19.9 15.3 13.4 66 3.7 WSW 30 39 16 21 1009.3 1008.9 0.0
05/08:00am 19.8 17.1 13.5 67 3.6 WSW 20 28 11 15 1008.3 1007.9 0.0
05/07:30am 19.5 16.7 13.2 67 3.6 W 20 26 11 14 1008.2 1007.8 0.0

Other formats

Comma delimited format used in spreadsheet applications
http://www.bom.gov.au/fwo/IDN60801/IDN60801.94702.axf

JavaScript Object Notation format (JSON) in row-major order
http://www.bom.gov.au/fwo/IDN60801/IDN60801.94702.json

Data quality

Most of these data are generated automatically and are frequently updated. Quality checks on data are not normally performed. It is possible for incorrect values to appear. Refer to information at About Latest Weather Observations and please check the disclaimer before using these data.